sensor_id;sensor_type;location;lat;lon;timestamp;pressure;altitude;pressure_sealevel;temperature;humidity
7480;BME280;3781;42.272;22.658;2022-07-23T00:01:37;94892.88;;;19.08;66.63
7480;BME280;3781;42.272;22.658;2022-07-23T00:04:04;94893.59;;;19.02;67.42
7480;BME280;3781;42.272;22.658;2022-07-23T00:06:31;94886.84;;;18.85;69.00
7480;BME280;3781;42.272;22.658;2022-07-23T00:08:57;94902.84;;;18.98;68.28
7480;BME280;3781;42.272;22.658;2022-07-23T00:11:24;94894.31;;;18.96;68.15
7480;BME280;3781;42.272;22.658;2022-07-23T00:13:51;94866.25;;;18.89;67.04
7480;BME280;3781;42.272;22.658;2022-07-23T00:16:20;94873.81;;;19.06;66.52
7480;BME280;3781;42.272;22.658;2022-07-23T00:18:48;94900.00;;;19.22;65.71
7480;BME280;3781;42.272;22.658;2022-07-23T00:21:15;94898.59;;;19.34;65.65
7480;BME280;3781;42.272;22.658;2022-07-23T00:23:41;94897.53;;;19.21;65.97
7480;BME280;3781;42.272;22.658;2022-07-23T00:26:08;94893.22;;;19.05;66.75
7480;BME280;3781;42.272;22.658;2022-07-23T00:28:35;94864.69;;;18.79;67.26
7480;BME280;3781;42.272;22.658;2022-07-23T00:31:02;94897.09;;;18.80;68.37
7480;BME280;3781;42.272;22.658;2022-07-23T00:33:29;94859.69;;;18.47;69.23
7480;BME280;3781;42.272;22.658;2022-07-23T00:35:57;94898.88;;;19.02;67.60
7480;BME280;3781;42.272;22.658;2022-07-23T00:38:24;94892.44;;;19.19;66.14
7480;BME280;3781;42.272;22.658;2022-07-23T00:40:51;94890.88;;;19.10;66.67
7480;BME280;3781;42.272;22.658;2022-07-23T00:43:20;94894.78;;;19.00;67.14
7480;BME280;3781;42.272;22.658;2022-07-23T00:45:47;94889.84;;;18.59;69.51
7480;BME280;3781;42.272;22.658;2022-07-23T00:48:14;94890.28;;;18.09;72.48
7480;BME280;3781;42.272;22.658;2022-07-23T00:50:41;94886.75;;;17.94;75.08
7480;BME280;3781;42.272;22.658;2022-07-23T00:53:10;94890.81;;;17.74;76.40
7480;BME280;3781;42.272;22.658;2022-07-23T00:55:37;94892.47;;;17.67;76.85
7480;BME280;3781;42.272;22.658;2022-07-23T00:58:05;94894.75;;;18.09;73.09
7480;BME280;3781;42.272;22.658;2022-07-23T01:00:32;94891.84;;;18.27;71.86
7480;BME280;3781;42.272;22.658;2022-07-23T01:02:59;94895.53;;;18.48;71.84
7480;BME280;3781;42.272;22.658;2022-07-23T01:05:26;94872.69;;;18.18;72.65
7480;BME280;3781;42.272;22.658;2022-07-23T01:07:53;94895.13;;;17.59;79.56
7480;BME280;3781;42.272;22.658;2022-07-23T01:10:21;94895.19;;;17.19;82.65
7480;BME280;3781;42.272;22.658;2022-07-23T01:12:58;94889.91;;;17.35;80.42
7480;BME280;3781;42.272;22.658;2022-07-23T01:15:25;94888.91;;;17.52;80.43
7480;BME280;3781;42.272;22.658;2022-07-23T01:17:52;94889.84;;;17.67;80.25
7480;BME280;3781;42.272;22.658;2022-07-23T01:20:19;94846.53;;;17.47;82.01
7480;BME280;3781;42.272;22.658;2022-07-23T01:22:48;94887.00;;;17.22;85.88
7480;BME280;3781;42.272;22.658;2022-07-23T01:25:15;94885.06;;;16.84;90.06
7480;BME280;3781;42.272;22.658;2022-07-23T01:27:42;94885.41;;;16.81;90.36
7480;BME280;3781;42.272;22.658;2022-07-23T01:30:10;94886.88;;;16.91;90.16
7480;BME280;3781;42.272;22.658;2022-07-23T01:32:37;94859.00;;;16.98;91.95
7480;BME280;3781;42.272;22.658;2022-07-23T01:35:04;94881.25;;;17.26;89.82
7480;BME280;3781;42.272;22.658;2022-07-23T01:37:31;94889.28;;;17.33;87.53
7480;BME280;3781;42.272;22.658;2022-07-23T01:40:00;94881.38;;;17.25;87.02
7480;BME280;3781;42.272;22.658;2022-07-23T01:42:26;94884.38;;;17.22;87.47
7480;BME280;3781;42.272;22.658;2022-07-23T01:44:53;94894.88;;;17.22;87.17
7480;BME280;3781;42.272;22.658;2022-07-23T01:47:20;94891.75;;;17.18;86.37
7480;BME280;3781;42.272;22.658;2022-07-23T01:49:47;94895.25;;;17.03;86.94
7480;BME280;3781;42.272;22.658;2022-07-23T01:52:14;94890.97;;;17.02;87.45
7480;BME280;3781;42.272;22.658;2022-07-23T01:54:41;94887.00;;;17.22;85.51
7480;BME280;3781;42.272;22.658;2022-07-23T01:57:10;94891.91;;;17.25;85.21
7480;BME280;3781;42.272;22.658;2022-07-23T01:59:36;94895.19;;;17.19;85.27
7480;BME280;3781;42.272;22.658;2022-07-23T02:02:04;94899.13;;;17.31;84.21
7480;BME280;3781;42.272;22.658;2022-07-23T02:04:31;94901.56;;;17.32;84.01
7480;BME280;3781;42.272;22.658;2022-07-23T02:07:00;94882.72;;;17.21;84.49
7480;BME280;3781;42.272;22.658;2022-07-23T02:09:27;94904.03;;;17.50;84.52
7480;BME280;3781;42.272;22.658;2022-07-23T02:11:54;94905.31;;;17.54;84.13
7480;BME280;3781;42.272;22.658;2022-07-23T02:14:22;94900.38;;;17.51;84.92
7480;BME280;3781;42.272;22.658;2022-07-23T02:16:49;94878.06;;;17.47;87.63
7480;BME280;3781;42.272;22.658;2022-07-23T02:19:16;94905.94;;;17.64;87.99
7480;BME280;3781;42.272;22.658;2022-07-23T02:21:42;94900.56;;;17.33;86.40
7480;BME280;3781;42.272;22.658;2022-07-23T02:24:09;94903.41;;;17.24;86.79
7480;BME280;3781;42.272;22.658;2022-07-23T02:26:36;94912.59;;;17.20;86.05
7480;BME280;3781;42.272;22.658;2022-07-23T02:29:04;94907.88;;;16.91;88.17
7480;BME280;3781;42.272;22.658;2022-07-23T02:31:32;94852.59;;;16.28;91.26
7480;BME280;3781;42.272;22.658;2022-07-23T02:33:59;94910.25;;;16.44;93.14
7480;BME280;3781;42.272;22.658;2022-07-23T02:36:26;94904.72;;;16.47;96.36
7480;BME280;3781;42.272;22.658;2022-07-23T02:38:53;94914.56;;;16.53;99.39
7480;BME280;3781;42.272;22.658;2022-07-23T02:41:20;94917.19;;;16.62;100.00
7480;BME280;3781;42.272;22.658;2022-07-23T02:43:47;94900.66;;;16.61;98.70
7480;BME280;3781;42.272;22.658;2022-07-23T02:46:14;94923.09;;;16.80;98.21
7480;BME280;3781;42.272;22.658;2022-07-23T02:48:42;94930.66;;;16.83;99.04
7480;BME280;3781;42.272;22.658;2022-07-23T02:51:09;94929.66;;;16.84;95.77
7480;BME280;3781;42.272;22.658;2022-07-23T02:53:36;94935.75;;;16.76;95.43
7480;BME280;3781;42.272;22.658;2022-07-23T02:56:03;94873.53;;;16.12;97.14
7480;BME280;3781;42.272;22.658;2022-07-23T02:58:30;94942.00;;;16.25;99.55
7480;BME280;3781;42.272;22.658;2022-07-23T03:00:57;94937.94;;;16.31;100.00
7480;BME280;3781;42.272;22.658;2022-07-23T03:03:23;94888.03;;;15.91;100.00
7480;BME280;3781;42.272;22.658;2022-07-23T03:05:51;94906.75;;;16.04;100.00
7480;BME280;3781;42.272;22.658;2022-07-23T03:08:18;94938.69;;;16.07;100.00
7480;BME280;3781;42.272;22.658;2022-07-23T03:10:45;94902.97;;;15.98;100.00
7480;BME280;3781;42.272;22.658;2022-07-23T03:13:12;94939.03;;;16.20;100.00
7480;BME280;3781;42.272;22.658;2022-07-23T03:15:38;94934.50;;;16.22;100.00
7480;BME280;3781;42.272;22.658;2022-07-23T03:18:05;94936.78;;;16.33;100.00
7480;BME280;3781;42.272;22.658;2022-07-23T03:20:32;94799.38;;;15.46;100.00
7480;BME280;3781;42.272;22.658;2022-07-23T03:23:00;94944.34;;;16.36;100.00
7480;BME280;3781;42.272;22.658;2022-07-23T03:25:27;94951.91;;;16.39;100.00
7480;BME280;3781;42.272;22.658;2022-07-23T03:27:54;94947.31;;;16.49;100.00
7480;BME280;3781;42.272;22.658;2022-07-23T03:30:21;94951.41;;;16.44;100.00
7480;BME280;3781;42.272;22.658;2022-07-23T03:32:47;94934.16;;;16.33;100.00
7480;BME280;3781;42.272;22.658;2022-07-23T03:35:14;94951.91;;;16.47;100.00
7480;BME280;3781;42.272;22.658;2022-07-23T03:37:41;94951.84;;;16.31;100.00
7480;BME280;3781;42.272;22.658;2022-07-23T03:40:10;94912.84;;;16.12;100.00
7480;BME280;3781;42.272;22.658;2022-07-23T03:42:37;94950.44;;;16.53;100.00
7480;BME280;3781;42.272;22.658;2022-07-23T03:45:07;94955.88;;;16.59;100.00
7480;BME280;3781;42.272;22.658;2022-07-23T03:47:33;94955.41;;;16.72;100.00
7480;BME280;3781;42.272;22.658;2022-07-23T03:50:00;94960.00;;;16.70;100.00
7480;BME280;3781;42.272;22.658;2022-07-23T03:52:27;94958.88;;;16.81;100.00
7480;BME280;3781;42.272;22.658;2022-07-23T03:54:54;94961.16;;;16.92;100.00
7480;BME280;3781;42.272;22.658;2022-07-23T03:57:22;94961.34;;;16.98;100.00
7480;BME280;3781;42.272;22.658;2022-07-23T03:59:49;94945.75;;;16.89;99.37
7480;BME280;3781;42.272;22.658;2022-07-23T04:02:15;94919.16;;;16.84;96.26
7480;BME280;3781;42.272;22.658;2022-07-23T04:04:42;94977.88;;;17.15;95.53
7480;BME280;3781;42.272;22.658;2022-07-23T04:07:09;94973.63;;;17.22;98.62
7480;BME280;3781;42.272;22.658;2022-07-23T04:09:36;94975.91;;;17.33;98.70
7480;BME280;3781;42.272;22.658;2022-07-23T04:12:03;94927.19;;;17.06;97.86
7480;BME280;3781;42.272;22.658;2022-07-23T04:14:32;94954.91;;;17.33;100.00
7480;BME280;3781;42.272;22.658;2022-07-23T04:16:59;94974.94;;;17.50;97.90
7480;BME280;3781;42.272;22.658;2022-07-23T04:19:26;94985.88;;;17.62;96.61
7480;BME280;3781;42.272;22.658;2022-07-23T04:21:53;94978.81;;;17.78;96.42
7480;BME280;3781;42.272;22.658;2022-07-23T04:24:19;94980.41;;;17.87;95.10
7480;BME280;3781;42.272;22.658;2022-07-23T04:26:46;94979.69;;;18.01;91.51
7480;BME280;3781;42.272;22.658;2022-07-23T04:29:13;94979.00;;;18.07;90.97
7480;BME280;3781;42.272;22.658;2022-07-23T04:31:41;94974.66;;;18.23;89.80
7480;BME280;3781;42.272;22.658;2022-07-23T04:34:08;94975.06;;;18.42;88.54
7480;BME280;3781;42.272;22.658;2022-07-23T04:36:35;94980.75;;;18.62;87.23
7480;BME280;3781;42.272;22.658;2022-07-23T04:39:02;94971.06;;;18.85;83.10
7480;BME280;3781;42.272;22.658;2022-07-23T04:41:28;94972.28;;;18.97;90.54
7480;BME280;3781;42.272;22.658;2022-07-23T04:43:55;94970.47;;;19.20;88.31
7480;BME280;3781;42.272;22.658;2022-07-23T04:46:22;94969.47;;;19.59;86.82
7480;BME280;3781;42.272;22.658;2022-07-23T04:48:50;94951.84;;;19.74;85.76
7480;BME280;3781;42.272;22.658;2022-07-23T04:51:17;94981.13;;;20.37;82.02
7480;BME280;3781;42.272;22.658;2022-07-23T04:53:44;94930.47;;;20.27;79.16
7480;BME280;3781;42.272;22.658;2022-07-23T04:56:11;94985.00;;;20.91;77.02
7480;BME280;3781;42.272;22.658;2022-07-23T04:58:37;94975.75;;;21.02;75.37
7480;BME280;3781;42.272;22.658;2022-07-23T05:01:04;94988.53;;;21.68;71.02
7480;BME280;3781;42.272;22.658;2022-07-23T05:03:32;94992.41;;;21.94;64.79
7480;BME280;3781;42.272;22.658;2022-07-23T05:06:00;94992.78;;;22.59;62.85
7480;BME280;3781;42.272;22.658;2022-07-23T05:08:28;94998.09;;;23.39;59.68
7480;BME280;3781;42.272;22.658;2022-07-23T05:10:55;94993.00;;;23.51;58.94
7480;BME280;3781;42.272;22.658;2022-07-23T05:13:22;94970.13;;;24.09;55.72
7480;BME280;3781;42.272;22.658;2022-07-23T05:15:48;95000.97;;;24.67;52.98
7480;BME280;3781;42.272;22.658;2022-07-23T05:18:15;94998.75;;;24.64;53.23
7480;BME280;3781;42.272;22.658;2022-07-23T05:20:42;94952.94;;;24.75;51.99
7480;BME280;3781;42.272;22.658;2022-07-23T05:23:10;94986.28;;;25.47;50.84
7480;BME280;3781;42.272;22.658;2022-07-23T05:25:37;95008.09;;;26.29;49.37
7480;BME280;3781;42.272;22.658;2022-07-23T05:28:04;95011.94;;;26.33;46.17
7480;BME280;3781;42.272;22.658;2022-07-23T05:30:31;95012.66;;;26.58;47.28
7480;BME280;3781;42.272;22.658;2022-07-23T05:32:57;95007.06;;;26.05;47.05
7480;BME280;3781;42.272;22.658;2022-07-23T05:35:25;95014.13;;;25.37;50.27
7480;BME280;3781;42.272;22.658;2022-07-23T05:37:51;95010.81;;;24.60;51.52
7480;BME280;3781;42.272;22.658;2022-07-23T05:40:20;95007.69;;;24.06;52.72
7480;BME280;3781;42.272;22.658;2022-07-23T05:42:47;94999.88;;;23.32;56.17
7480;BME280;3781;42.272;22.658;2022-07-23T05:45:14;95003.50;;;22.92;55.71
7480;BME280;3781;42.272;22.658;2022-07-23T05:47:42;95004.69;;;22.89;55.76
7480;BME280;3781;42.272;22.658;2022-07-23T05:50:09;95002.41;;;22.80;57.64
7480;BME280;3781;42.272;22.658;2022-07-23T05:52:37;95000.97;;;22.71;58.58
7480;BME280;3781;42.272;22.658;2022-07-23T05:55:04;94976.16;;;22.31;60.60
7480;BME280;3781;42.272;22.658;2022-07-23T05:57:32;94976.50;;;22.21;57.65
7480;BME280;3781;42.272;22.658;2022-07-23T05:59:59;95000.41;;;22.41;60.36
7480;BME280;3781;42.272;22.658;2022-07-23T06:02:26;95000.38;;;22.34;60.21
7480;BME280;3781;42.272;22.658;2022-07-23T06:04:53;95002.16;;;22.62;58.58
7480;BME280;3781;42.272;22.658;2022-07-23T06:07:20;94981.41;;;22.72;58.61
7480;BME280;3781;42.272;22.658;2022-07-23T06:09:46;95000.59;;;22.80;59.30
7480;BME280;3781;42.272;22.658;2022-07-23T06:12:14;94996.56;;;22.97;58.87
7480;BME280;3781;42.272;22.658;2022-07-23T06:14:43;95002.84;;;22.77;55.89
7480;BME280;3781;42.272;22.658;2022-07-23T06:17:10;94994.13;;;22.96;55.88
7480;BME280;3781;42.272;22.658;2022-07-23T06:19:36;94991.28;;;23.04;54.72
7480;BME280;3781;42.272;22.658;2022-07-23T06:22:03;94993.75;;;23.18;58.14
7480;BME280;3781;42.272;22.658;2022-07-23T06:24:30;94990.97;;;23.46;58.52
7480;BME280;3781;42.272;22.658;2022-07-23T06:26:57;94966.69;;;23.56;56.42
7480;BME280;3781;42.272;22.658;2022-07-23T06:29:23;94996.06;;;23.80;56.18
7480;BME280;3781;42.272;22.658;2022-07-23T06:31:52;94998.09;;;23.91;54.16
7480;BME280;3781;42.272;22.658;2022-07-23T06:34:18;94986.84;;;24.03;54.91
7480;BME280;3781;42.272;22.658;2022-07-23T06:36:45;94994.59;;;24.24;54.70
7480;BME280;3781;42.272;22.658;2022-07-23T06:39:12;94985.97;;;24.41;54.99
7480;BME280;3781;42.272;22.658;2022-07-23T06:41:39;94994.47;;;24.56;53.79
7480;BME280;3781;42.272;22.658;2022-07-23T06:44:06;94993.06;;;24.54;50.95
7480;BME280;3781;42.272;22.658;2022-07-23T06:46:33;94991.63;;;24.51;51.49
7480;BME280;3781;42.272;22.658;2022-07-23T06:49:01;94986.25;;;24.64;53.05
7480;BME280;3781;42.272;22.658;2022-07-23T06:51:29;94983.38;;;24.79;52.21
7480;BME280;3781;42.272;22.658;2022-07-23T06:53:56;94982.94;;;24.82;53.60
7480;BME280;3781;42.272;22.658;2022-07-23T06:56:23;94979.81;;;24.98;52.92
7480;BME280;3781;42.272;22.658;2022-07-23T06:58:50;94986.06;;;25.10;51.61
7480;BME280;3781;42.272;22.658;2022-07-23T07:01:17;94970.81;;;25.30;52.35
7480;BME280;3781;42.272;22.658;2022-07-23T07:03:44;94981.59;;;25.67;51.68
7480;BME280;3781;42.272;22.658;2022-07-23T07:06:13;94980.09;;;25.77;51.41
7480;BME280;3781;42.272;22.658;2022-07-23T07:08:40;94966.28;;;25.87;49.85
7480;BME280;3781;42.272;22.658;2022-07-23T07:11:08;94976.97;;;26.05;50.39
7480;BME280;3781;42.272;22.658;2022-07-23T07:13:35;94904.88;;;25.64;48.82
7480;BME280;3781;42.272;22.658;2022-07-23T07:16:02;94959.09;;;26.12;50.12
7480;BME280;3781;42.272;22.658;2022-07-23T07:18:29;94944.59;;;26.26;48.97
7480;BME280;3781;42.272;22.658;2022-07-23T07:20:56;94978.41;;;26.44;45.86
7480;BME280;3781;42.272;22.658;2022-07-23T07:23:25;94978.09;;;26.52;45.99
7480;BME280;3781;42.272;22.658;2022-07-23T07:25:52;94978.63;;;26.60;45.85
7480;BME280;3781;42.272;22.658;2022-07-23T07:28:18;94953.63;;;26.61;47.48
7480;BME280;3781;42.272;22.658;2022-07-23T07:30:45;94963.00;;;26.82;48.39
7480;BME280;3781;42.272;22.658;2022-07-23T07:33:12;94956.91;;;26.93;48.70
7480;BME280;3781;42.272;22.658;2022-07-23T07:35:39;94964.34;;;27.21;46.53
7480;BME280;3781;42.272;22.658;2022-07-23T07:38:06;94959.06;;;27.44;47.62
7480;BME280;3781;42.272;22.658;2022-07-23T07:40:34;94959.06;;;27.44;47.73
7480;BME280;3781;42.272;22.658;2022-07-23T07:43:01;94960.03;;;27.84;46.60
7480;BME280;3781;42.272;22.658;2022-07-23T07:45:29;94954.00;;;27.89;47.49
7480;BME280;3781;42.272;22.658;2022-07-23T07:47:56;94931.59;;;27.78;46.52
7480;BME280;3781;42.272;22.658;2022-07-23T07:50:23;94963.53;;;28.19;47.14
7480;BME280;3781;42.272;22.658;2022-07-23T07:52:50;94939.88;;;28.11;46.82
7480;BME280;3781;42.272;22.658;2022-07-23T07:55:17;94956.75;;;28.52;47.98
7480;BME280;3781;42.272;22.658;2022-07-23T07:57:45;94955.19;;;28.90;45.39
7480;BME280;3781;42.272;22.658;2022-07-23T08:00:12;94952.44;;;28.74;43.44
7480;BME280;3781;42.272;22.658;2022-07-23T08:02:41;94931.09;;;28.62;47.71
7480;BME280;3781;42.272;22.658;2022-07-23T08:05:08;94945.69;;;28.99;45.32
7480;BME280;3781;42.272;22.658;2022-07-23T08:07:36;94919.31;;;29.03;45.54
7480;BME280;3781;42.272;22.658;2022-07-23T08:10:06;94944.53;;;29.35;44.43
7480;BME280;3781;42.272;22.658;2022-07-23T08:12:41;94937.72;;;29.44;43.93
7480;BME280;3781;42.272;22.658;2022-07-23T08:15:11;94944.94;;;29.60;43.16
7480;BME280;3781;42.272;22.658;2022-07-23T08:17:39;94942.56;;;29.47;42.77
7480;BME280;3781;42.272;22.658;2022-07-23T08:20:07;94920.13;;;29.48;43.51
7480;BME280;3781;42.272;22.658;2022-07-23T08:22:49;94931.03;;;29.75;44.47
7480;BME280;3781;42.272;22.658;2022-07-23T08:25:20;94940.25;;;30.01;42.32
7480;BME280;3781;42.272;22.658;2022-07-23T08:27:47;94939.03;;;30.30;41.29
7480;BME280;3781;42.272;22.658;2022-07-23T08:30:16;94922.00;;;30.36;43.80
7480;BME280;3781;42.272;22.658;2022-07-23T08:32:54;94930.91;;;30.63;42.40
7480;BME280;3781;42.272;22.658;2022-07-23T08:35:23;94934.84;;;30.77;40.86
7480;BME280;3781;42.272;22.658;2022-07-23T08:37:50;94924.50;;;31.12;38.34
7480;BME280;3781;42.272;22.658;2022-07-23T08:40:18;94928.72;;;31.57;39.60
7480;BME280;3781;42.272;22.658;2022-07-23T08:42:47;94936.41;;;31.75;37.30
7480;BME280;3781;42.272;22.658;2022-07-23T08:45:17;94929.63;;;32.04;39.21
7480;BME280;3781;42.272;22.658;2022-07-23T08:47:48;94911.00;;;31.92;38.11
7480;BME280;3781;42.272;22.658;2022-07-23T08:50:15;94924.19;;;32.41;38.01
7480;BME280;3781;42.272;22.658;2022-07-23T08:52:42;94924.78;;;33.05;37.58
7480;BME280;3781;42.272;22.658;2022-07-23T08:55:09;94912.75;;;33.63;35.21
7480;BME280;3781;42.272;22.658;2022-07-23T08:57:36;94912.91;;;34.57;34.23
7480;BME280;3781;42.272;22.658;2022-07-23T09:00:04;94930.69;;;35.71;31.18
7480;BME280;3781;42.272;22.658;2022-07-23T09:02:38;94928.59;;;36.77;29.95
7480;BME280;3781;42.272;22.658;2022-07-23T09:05:05;94930.69;;;37.65;29.18
7480;BME280;3781;42.272;22.658;2022-07-23T09:07:33;94904.53;;;38.06;28.50
7480;BME280;3781;42.272;22.658;2022-07-23T09:10:08;94918.47;;;39.27;26.16
7480;BME280;3781;42.272;22.658;2022-07-23T09:12:35;94916.13;;;38.25;26.08
7480;BME280;3781;42.272;22.658;2022-07-23T09:15:07;94931.38;;;39.57;24.93
7480;BME280;3781;42.272;22.658;2022-07-23T09:17:42;94923.53;;;40.44;24.20
7480;BME280;3781;42.272;22.658;2022-07-23T09:20:11;94923.66;;;40.79;24.81
7480;BME280;3781;42.272;22.658;2022-07-23T09:22:38;94924.59;;;39.90;20.94
7480;BME280;3781;42.272;22.658;2022-07-23T09:25:09;94929.41;;;40.69;23.86
7480;BME280;3781;42.272;22.658;2022-07-23T09:27:52;94923.59;;;40.61;23.86
7480;BME280;3781;42.272;22.658;2022-07-23T09:30:20;94918.78;;;40.28;22.67
7480;BME280;3781;42.272;22.658;2022-07-23T09:33:10;94913.34;;;40.28;21.27
7480;BME280;3781;42.272;22.658;2022-07-23T09:35:48;94892.31;;;40.90;22.72
7480;BME280;3781;42.272;22.658;2022-07-23T09:38:16;94917.91;;;41.96;20.89
7480;BME280;3781;42.272;22.658;2022-07-23T09:40:45;94898.78;;;41.19;22.67
7480;BME280;3781;42.272;22.658;2022-07-23T09:43:13;94894.59;;;41.22;23.10
7480;BME280;3781;42.272;22.658;2022-07-23T09:45:51;94904.47;;;41.66;22.26
7480;BME280;3781;42.272;22.658;2022-07-23T09:48:22;94903.47;;;42.13;21.86
7480;BME280;3781;42.272;22.658;2022-07-23T09:50:51;94905.63;;;42.45;19.69
7480;BME280;3781;42.272;22.658;2022-07-23T09:53:24;94894.38;;;42.93;19.94
7480;BME280;3781;42.272;22.658;2022-07-23T09:55:51;94898.22;;;42.54;20.42
7480;BME280;3781;42.272;22.658;2022-07-23T09:58:22;94892.78;;;42.84;19.21
7480;BME280;3781;42.272;22.658;2022-07-23T10:00:52;94891.06;;;43.08;18.38
7480;BME280;3781;42.272;22.658;2022-07-23T10:03:21;94884.28;;;43.56;19.33
7480;BME280;3781;42.272;22.658;2022-07-23T10:05:50;94881.69;;;42.51;18.70
7480;BME280;3781;42.272;22.658;2022-07-23T10:08:19;94893.63;;;43.34;18.64
7480;BME280;3781;42.272;22.658;2022-07-23T10:10:46;94898.81;;;43.27;16.81
7480;BME280;3781;42.272;22.658;2022-07-23T10:13:13;94883.09;;;43.44;16.46
7480;BME280;3781;42.272;22.658;2022-07-23T10:15:57;94881.69;;;43.38;17.32
7480;BME280;3781;42.272;22.658;2022-07-23T10:18:26;94823.22;;;43.22;16.61
7480;BME280;3781;42.272;22.658;2022-07-23T10:20:53;94871.59;;;43.51;15.58
7480;BME280;3781;42.272;22.658;2022-07-23T10:23:24;94842.75;;;42.92;16.67
7480;BME280;3781;42.272;22.658;2022-07-23T10:25:58;94883.47;;;43.55;17.16
7480;BME280;3781;42.272;22.658;2022-07-23T10:28:44;94879.19;;;43.25;18.04
7480;BME280;3781;42.272;22.658;2022-07-23T10:31:25;94873.09;;;43.69;16.07
7480;BME280;3781;42.272;22.658;2022-07-23T10:34:01;94876.56;;;43.37;16.49
7480;BME280;3781;42.272;22.658;2022-07-23T10:36:32;94869.47;;;43.77;17.83
7480;BME280;3781;42.272;22.658;2022-07-23T10:39:05;94870.81;;;42.71;15.27
7480;BME280;3781;42.272;22.658;2022-07-23T10:41:34;94869.03;;;43.05;15.90
7480;BME280;3781;42.272;22.658;2022-07-23T10:44:08;94853.06;;;43.57;15.20
7480;BME280;3781;42.272;22.658;2022-07-23T10:46:35;94860.72;;;44.04;13.08
7480;BME280;3781;42.272;22.658;2022-07-23T10:49:24;94849.81;;;42.93;13.89
7480;BME280;3781;42.272;22.658;2022-07-23T10:52:16;94819.06;;;42.29;13.62
7480;BME280;3781;42.272;22.658;2022-07-23T10:54:45;94813.28;;;41.84;13.71
7480;BME280;3781;42.272;22.658;2022-07-23T10:57:13;94816.53;;;41.35;15.17
7480;BME280;3781;42.272;22.658;2022-07-23T11:02:45;94810.13;;;39.87;15.18
7480;BME280;3781;42.272;22.658;2022-07-23T11:05:17;94827.16;;;39.70;15.08
7480;BME280;3781;42.272;22.658;2022-07-23T11:08:15;94783.66;;;39.48;15.14
7480;BME280;3781;42.272;22.658;2022-07-23T11:10:45;94756.53;;;39.87;14.24
7480;BME280;3781;42.272;22.658;2022-07-23T11:13:36;94823.59;;;41.36;13.60
7480;BME280;3781;42.272;22.658;2022-07-23T11:19:09;94784.25;;;40.29;17.16
7480;BME280;3781;42.272;22.658;2022-07-23T11:21:48;94785.69;;;41.77;17.46
7480;BME280;3781;42.272;22.658;2022-07-23T11:24:23;94825.13;;;42.81;11.80
7480;BME280;3781;42.272;22.658;2022-07-23T11:27:02;94807.88;;;41.33;12.28
7480;BME280;3781;42.272;22.658;2022-07-23T11:29:43;94816.19;;;41.10;12.33
7480;BME280;3781;42.272;22.658;2022-07-23T11:32:27;94765.25;;;40.46;12.78
7480;BME280;3781;42.272;22.658;2022-07-23T11:34:55;94784.28;;;41.11;11.89
7480;BME280;3781;42.272;22.658;2022-07-23T11:37:36;94756.50;;;41.69;11.79
7480;BME280;3781;42.272;22.658;2022-07-23T11:40:08;94790.44;;;42.43;12.38
7480;BME280;3781;42.272;22.658;2022-07-23T11:42:37;94782.22;;;42.52;10.20
7480;BME280;3781;42.272;22.658;2022-07-23T11:45:06;94795.75;;;41.85;11.16
7480;BME280;3781;42.272;22.658;2022-07-23T11:47:34;94782.41;;;41.92;10.00
7480;BME280;3781;42.272;22.658;2022-07-23T11:50:04;94787.81;;;41.46;10.76
7480;BME280;3781;42.272;22.658;2022-07-23T11:52:33;94724.00;;;41.93;13.02
7480;BME280;3781;42.272;22.658;2022-07-23T11:55:02;94764.19;;;43.01;12.79
7480;BME280;3781;42.272;22.658;2022-07-23T11:57:31;94762.88;;;43.48;13.62
7480;BME280;3781;42.272;22.658;2022-07-23T12:00:04;94739.28;;;43.02;10.64
7480;BME280;3781;42.272;22.658;2022-07-23T12:02:32;94771.00;;;42.95;10.79
7480;BME280;3781;42.272;22.658;2022-07-23T12:04:59;94776.22;;;43.08;10.66
7480;BME280;3781;42.272;22.658;2022-07-23T12:07:31;94774.56;;;42.95;10.13
7480;BME280;3781;42.272;22.658;2022-07-23T12:10:02;94770.63;;;43.25;14.49
7480;BME280;3781;42.272;22.658;2022-07-23T12:12:36;94675.13;;;43.00;12.44
7480;BME280;3781;42.272;22.658;2022-07-23T12:15:04;94733.88;;;43.47;12.84
7480;BME280;3781;42.272;22.658;2022-07-23T12:17:33;94765.78;;;44.69;11.55
7480;BME280;3781;42.272;22.658;2022-07-23T12:20:01;94766.06;;;46.30;11.48
7480;BME280;3781;42.272;22.658;2022-07-23T12:22:34;94764.59;;;46.83;10.92
7480;BME280;3781;42.272;22.658;2022-07-23T12:25:06;94753.56;;;47.56;10.97
7480;BME280;3781;42.272;22.658;2022-07-23T12:27:34;94681.81;;;47.68;9.92
7480;BME280;3781;42.272;22.658;2022-07-23T12:30:18;94749.84;;;49.37;9.04
7480;BME280;3781;42.272;22.658;2022-07-23T12:32:48;94755.88;;;49.82;9.78
7480;BME280;3781;42.272;22.658;2022-07-23T12:35:15;94741.59;;;49.73;10.50
7480;BME280;3781;42.272;22.658;2022-07-23T12:37:44;94738.56;;;49.86;8.49
7480;BME280;3781;42.272;22.658;2022-07-23T12:40:37;94736.38;;;48.76;9.91
7480;BME280;3781;42.272;22.658;2022-07-23T12:43:09;94748.31;;;49.76;9.35
7480;BME280;3781;42.272;22.658;2022-07-23T12:45:47;94740.16;;;49.87;9.78
7480;BME280;3781;42.272;22.658;2022-07-23T12:48:23;94746.13;;;50.29;9.35
7480;BME280;3781;42.272;22.658;2022-07-23T12:50:52;94737.84;;;49.92;9.83
7480;BME280;3781;42.272;22.658;2022-07-23T12:53:21;94693.31;;;49.27;10.59
7480;BME280;3781;42.272;22.658;2022-07-23T12:55:51;94734.00;;;50.04;8.99
7480;BME280;3781;42.272;22.658;2022-07-23T12:58:24;94691.03;;;50.57;8.80
7480;BME280;3781;42.272;22.658;2022-07-23T13:00:59;94731.16;;;51.81;8.65
7480;BME280;3781;42.272;22.658;2022-07-23T13:03:30;94737.94;;;52.12;6.33
7480;BME280;3781;42.272;22.658;2022-07-23T13:05:58;94706.63;;;48.88;8.92
7480;BME280;3781;42.272;22.658;2022-07-23T13:08:27;94703.69;;;48.78;8.87
7480;BME280;3781;42.272;22.658;2022-07-23T13:10:56;94726.22;;;49.39;10.04
7480;BME280;3781;42.272;22.658;2022-07-23T13:13:24;94695.50;;;50.25;10.06
7480;BME280;3781;42.272;22.658;2022-07-23T13:15:51;94696.81;;;50.99;8.83
7480;BME280;3781;42.272;22.658;2022-07-23T13:18:19;94701.00;;;51.62;8.42
7480;BME280;3781;42.272;22.658;2022-07-23T13:20:47;94663.84;;;51.59;8.44
7480;BME280;3781;42.272;22.658;2022-07-23T13:23:15;94703.53;;;50.98;7.56
7480;BME280;3781;42.272;22.658;2022-07-23T13:25:42;94655.91;;;51.65;9.45